Time;durP1;ratioP1;P1;durP2;ratioP2;P2;SDS_P1;SDS_P2;PMS_P1;PMS_P2;Temp;Humidity;BMP_temperature;BMP_pressure;BME280_temperature;BME280_humidity;BME280_pressure;Samples;Min_cycle;Max_cycle;Signal;HPM_P1;HPM_P2
2023/10/02 00:01:51;;;;;;;7.70;2.20;;;;;;;-128.00;-1.00;-1.00;18982;318;7504431;-32
2023/10/02 00:04:23;;;;;;;3.50;1.60;;;;;;;-128.00;-1.00;-1.00;19005;322;7504836;-34
2023/10/02 00:07:05;;;;;;;7.70;2.60;;;;;;;-128.00;-1.00;-1.00;19002;318;7505177;-34
2023/10/02 00:09:36;;;;;;;0.80;0.60;;;;;;;-128.00;-1.00;-1.00;19008;318;7506185;-35
2023/10/02 00:12:11;;;;;;;1.10;0.70;;;;;;;-128.00;-1.00;-1.00;19021;318;7506262;-34
2023/10/02 00:14:38;;;;;;;1.90;1.50;;;;;;;-128.00;-1.00;-1.00;19003;318;7504933;-31
2023/10/02 00:17:04;;;;;;;3.70;2.10;;;;;;;-128.00;-1.00;-1.00;19005;324;7506453;-31
2023/10/02 00:19:36;;;;;;;5.10;2.90;;;;;;;-128.00;-1.00;-1.00;18982;322;7504630;-31
2023/10/02 00:22:07;;;;;;;5.40;2.60;;;;;;;-128.00;-1.00;-1.00;19011;318;7504856;-36
2023/10/02 00:24:38;;;;;;;9.20;2.90;;;;;;;-128.00;-1.00;-1.00;18983;318;7504581;-31
2023/10/02 00:27:05;;;;;;;5.80;3.10;;;;;;;-128.00;-1.00;-1.00;19002;323;7504593;-31
2023/10/02 00:29:31;;;;;;;5.70;2.90;;;;;;;-128.00;-1.00;-1.00;18988;318;7505518;-34
2023/10/02 00:31:57;;;;;;;2.90;1.80;;;;;;;-128.00;-1.00;-1.00;19014;318;7504869;-34
2023/10/02 01:18:37;;;;;;;3.80;2.90;;;;;;;-99.99;18.97;20019.58;62125;317;4503747;-31
2023/10/02 01:21:10;;;;;;;9.40;2.00;;;;;;;-128.00;-1.00;-1.00;18657;318;7506114;-35
2023/10/02 01:24:06;;;;;;;4.30;2.00;;;;;;;-128.00;-1.00;-1.00;19071;316;7505285;-31
2023/10/02 01:26:40;;;;;;;3.00;1.70;;;;;;;-128.00;-1.00;-1.00;19055;322;7505814;-34
2023/10/02 01:29:06;;;;;;;4.60;2.00;;;;;;;-128.00;-1.00;-1.00;19065;320;7506729;-34
2023/10/02 01:31:40;;;;;;;4.60;2.00;;;;;;;-128.00;-1.00;-1.00;19074;317;7504526;-31
2023/10/02 01:34:06;;;;;;;12.00;2.60;;;;;;;-128.00;-1.00;-1.00;19059;317;7506585;-35
2023/10/02 01:36:32;;;;;;;1.90;1.30;;;;;;;-128.00;-1.00;-1.00;19062;316;7505327;-31
2023/10/02 01:39:10;;;;;;;4.90;2.00;;;;;;;-128.00;-1.00;-1.00;19075;316;7504995;-31
2023/10/02 01:41:36;;;;;;;3.10;1.80;;;;;;;-128.00;-1.00;-1.00;19024;316;7505165;-32
2023/10/02 01:44:04;;;;;;;13.10;2.20;;;;;;;-128.00;-1.00;-1.00;19076;320;7505352;-34
2023/10/02 01:46:30;;;;;;;7.20;2.10;;;;;;;-128.00;-1.00;-1.00;19060;316;7504904;-31
2023/10/02 01:48:56;;;;;;;3.70;1.80;;;;;;;-128.00;-1.00;-1.00;19072;317;7506332;-31
2023/10/02 01:53:56;;;;;;;6.90;2.70;;;;;;;-128.00;-1.00;-1.00;19067;320;7505115;-34
2023/10/02 01:56:23;;;;;;;4.80;1.50;;;;;;;-128.00;-1.00;-1.00;19112;322;7504768;-35
2023/10/02 01:58:49;;;;;;;6.40;2.80;;;;;;;-128.00;-1.00;-1.00;19089;316;7504910;-31
2023/10/02 02:01:15;;;;;;;4.00;2.20;;;;;;;-128.00;-1.00;-1.00;19485;316;7505181;-30
2023/10/02 02:03:48;;;;;;;4.70;2.40;;;;;;;-128.00;-1.00;-1.00;19079;317;7504835;-34
2023/10/02 02:06:20;;;;;;;7.30;3.10;;;;;;;-128.00;-1.00;-1.00;19059;322;7506226;-34
2023/10/02 02:08:49;;;;;;;;;;;;;;;-128.00;-1.00;-1.00;19080;322;7504953;-36
2023/10/02 02:11:22;;;;;;;3.30;1.90;;;;;;;-128.00;-1.00;-1.00;19053;322;7505438;-30
2023/10/02 02:13:50;;;;;;;6.90;2.10;;;;;;;-128.00;-1.00;-1.00;19076;317;7505202;-30
2023/10/02 02:16:21;;;;;;;3.60;2.30;;;;;;;-128.00;-1.00;-1.00;19051;320;7505287;-34
2023/10/02 02:18:50;;;;;;;10.40;2.60;;;;;;;-128.00;-1.00;-1.00;18993;319;7505039;-31
2023/10/02 02:21:17;;;;;;;4.50;2.50;;;;;;;-128.00;-1.00;-1.00;19080;322;7504983;-34
2023/10/02 02:23:45;;;;;;;7.70;3.20;;;;;;;-128.00;-1.00;-1.00;19077;317;7504849;-30
2023/10/02 02:26:21;;;;;;;3.40;2.30;;;;;;;-128.00;-1.00;-1.00;19049;316;7506141;-35
2023/10/02 02:28:51;;;;;;;4.20;1.00;;;;;;;-128.00;-1.00;-1.00;19071;316;7504443;-35
2023/10/02 02:34:08;;;;;;;3.40;1.90;;;;;;;-128.00;-1.00;-1.00;19077;322;7504862;-31
2023/10/02 02:36:35;;;;;;;7.20;3.50;;;;;;;-128.00;-1.00;-1.00;19030;322;7506297;-32
2023/10/02 02:39:17;;;;;;;11.20;2.50;;;;;;;-128.00;-1.00;-1.00;19031;318;7505220;-31
2023/10/02 02:41:47;;;;;;;5.00;1.20;;;;;;;-128.00;-1.00;-1.00;19078;317;7504900;-34
2023/10/02 02:46:53;;;;;;;5.50;2.20;;;;;;;-128.00;-1.00;-1.00;19062;317;7506329;-30
2023/10/02 02:49:19;;;;;;;4.30;1.80;;;;;;;-128.00;-1.00;-1.00;19022;318;7506585;-34
2023/10/02 02:51:48;;;;;;;5.50;2.70;;;;;;;-128.00;-1.00;-1.00;19056;322;7504630;-32
2023/10/02 02:54:15;;;;;;;3.40;2.40;;;;;;;-128.00;-1.00;-1.00;19059;316;7505022;-31
2023/10/02 02:56:41;;;;;;;5.90;2.60;;;;;;;-128.00;-1.00;-1.00;19063;316;7504945;-31
2023/10/02 02:59:08;;;;;;;6.00;2.00;;;;;;;-128.00;-1.00;-1.00;19083;322;7504664;-32
2023/10/02 03:01:34;;;;;;;5.20;1.80;;;;;;;-128.00;-1.00;-1.00;19073;316;7506105;-36
2023/10/02 03:04:11;;;;;;;4.90;2.90;;;;;;;-128.00;-1.00;-1.00;19069;320;7506223;-30
2023/10/02 03:06:37;;;;;;;6.30;2.70;;;;;;;-128.00;-1.00;-1.00;19064;316;7507353;-34
2023/10/02 03:09:05;;;;;;;6.80;3.30;;;;;;;-128.00;-1.00;-1.00;19003;319;7504912;-34
2023/10/02 03:11:32;;;;;;;5.10;2.30;;;;;;;-128.00;-1.00;-1.00;19070;320;7505263;-29
2023/10/02 03:16:36;;;;;;;7.50;1.90;;;;;;;-128.00;-1.00;-1.00;19040;317;7504820;-34
2023/10/02 03:19:03;;;;;;;3.50;2.00;;;;;;;-128.00;-1.00;-1.00;19472;317;7505319;-36
2023/10/02 03:21:30;;;;;;;4.90;1.60;;;;;;;-128.00;-1.00;-1.00;19068;322;7505177;-32
2023/10/02 03:24:01;;;;;;;3.60;1.60;;;;;;;-128.00;-1.00;-1.00;19002;322;7506678;-33
2023/10/02 03:26:37;;;;;;;2.70;1.40;;;;;;;-128.00;-1.00;-1.00;19066;322;7506313;-34
2023/10/02 03:29:11;;;;;;;5.30;2.20;;;;;;;-128.00;-1.00;-1.00;19061;322;7504338;-31
2023/10/02 03:31:43;;;;;;;4.00;2.20;;;;;;;-128.00;-1.00;-1.00;19050;316;7504637;-35
2023/10/02 03:36:47;;;;;;;3.80;2.50;;;;;;;-128.00;-1.00;-1.00;19071;316;7504625;-35
2023/10/02 03:39:23;;;;;;;5.40;2.80;;;;;;;-128.00;-1.00;-1.00;19069;316;7504722;-31
2023/10/02 03:41:50;;;;;;;5.00;1.60;;;;;;;-128.00;-1.00;-1.00;19031;318;7506555;-35
2023/10/02 03:44:16;;;;;;;4.00;2.10;;;;;;;-128.00;-1.00;-1.00;19081;322;7505547;-34
2023/10/02 03:46:42;;;;;;;4.50;1.80;;;;;;;-128.00;-1.00;-1.00;19041;316;7504751;-34
2023/10/02 03:49:08;;;;;;;7.30;2.50;;;;;;;-128.00;-1.00;-1.00;19023;322;7504413;-30
2023/10/02 03:51:40;;;;;;;4.60;1.90;;;;;;;-128.00;-1.00;-1.00;19045;322;7504486;-36
2023/10/02 03:54:17;;;;;;;7.10;1.80;;;;;;;-128.00;-1.00;-1.00;19061;316;7504614;-30
2023/10/02 03:56:47;;;;;;;4.00;2.30;;;;;;;-128.00;-1.00;-1.00;19073;317;7504883;-35
2023/10/02 03:59:17;;;;;;;10.60;2.70;;;;;;;-128.00;-1.00;-1.00;19070;317;7505299;-35
2023/10/02 04:01:43;;;;;;;4.90;2.70;;;;;;;-128.00;-1.00;-1.00;19032;322;7504627;-35
2023/10/02 04:06:50;;;;;;;3.30;2.70;;;;;;;-128.00;-1.00;-1.00;19059;322;7505391;-35
2023/10/02 04:09:24;;;;;;;6.30;3.10;;;;;;;-128.00;-1.00;-1.00;19057;317;7505147;-35
2023/10/02 04:11:54;;;;;;;9.40;3.10;;;;;;;-128.00;-1.00;-1.00;19069;322;7506131;-36
2023/10/02 04:17:13;;;;;;;3.60;1.90;;;;;;;-128.00;-1.00;-1.00;19083;316;7504933;-32
2023/10/02 04:22:25;;;;;;;2.80;1.80;;;;;;;-128.00;-1.00;-1.00;19061;322;7505174;-32
2023/10/02 04:24:58;;;;;;;5.50;2.80;;;;;;;-128.00;-1.00;-1.00;19069;317;7506019;-35
2023/10/02 04:28:00;;;;;;;8.00;2.30;;;;;;;-128.00;-1.00;-1.00;19060;317;7506697;-31
2023/10/02 04:32:49;;;;;;;7.20;1.90;;;;;;;-128.00;-1.00;-1.00;19058;316;7504921;-31
2023/10/02 04:37:58;;;;;;;8.80;2.30;;;;;;;-128.00;-1.00;-1.00;19044;322;7506589;-35
2023/10/02 04:40:37;;;;;;;3.80;2.60;;;;;;;-128.00;-1.00;-1.00;19066;316;7506303;-35
2023/10/02 04:45:44;;;;;;;5.10;2.40;;;;;;;-128.00;-1.00;-1.00;19075;322;7504580;-30
2023/10/02 04:48:11;;;;;;;3.40;1.60;;;;;;;-128.00;-1.00;-1.00;19071;316;7506080;-33
2023/10/02 04:50:45;;;;;;;5.20;2.30;;;;;;;-128.00;-1.00;-1.00;19056;317;7504797;-34
2023/10/02 04:53:22;;;;;;;2.50;1.50;;;;;;;-128.00;-1.00;-1.00;19056;317;7506544;-34
2023/10/02 04:55:57;;;;;;;2.40;1.60;;;;;;;-128.00;-1.00;-1.00;19017;318;7505650;-32
2023/10/02 04:58:27;;;;;;;3.10;1.90;;;;;;;-128.00;-1.00;-1.00;19068;317;7504619;-32
2023/10/02 05:03:36;;;;;;;5.70;3.10;;;;;;;-128.00;-1.00;-1.00;19053;317;7506227;-34
2023/10/02 05:06:03;;;;;;;3.60;1.70;;;;;;;-128.00;-1.00;-1.00;19006;318;7505191;-36
2023/10/02 05:08:34;;;;;;;6.20;2.50;;;;;;;-128.00;-1.00;-1.00;19057;317;7506361;-32
2023/10/02 05:11:07;;;;;;;4.10;1.90;;;;;;;-128.00;-1.00;-1.00;19066;317;7504944;-30
2023/10/02 05:16:12;;;;;;;5.10;2.40;;;;;;;-128.00;-1.00;-1.00;19046;321;7504931;-30
2023/10/02 05:18:47;;;;;;;2.80;1.70;;;;;;;-128.00;-1.00;-1.00;19050;317;7504916;-35
2023/10/02 05:21:16;;;;;;;5.90;2.80;;;;;;;-128.00;-1.00;-1.00;19044;322;7504783;-31
2023/10/02 05:26:32;;;;;;;2.40;1.80;;;;;;;-128.00;-1.00;-1.00;19069;317;7504686;-32
2023/10/02 05:28:59;;;;;;;2.10;1.60;;;;;;;-128.00;-1.00;-1.00;19015;318;7504827;-35
2023/10/02 05:31:27;;;;;;;2.60;2.20;;;;;;;-128.00;-1.00;-1.00;19029;322;7505110;-31
2023/10/02 05:33:53;;;;;;;9.20;3.10;;;;;;;-128.00;-1.00;-1.00;19076;317;7504403;-31
2023/10/02 05:36:21;;;;;;;4.60;3.20;;;;;;;-128.00;-1.00;-1.00;19067;317;7504754;-31
2023/10/02 05:39:16;;;;;;;7.00;2.50;;;;;;;-128.00;-1.00;-1.00;19061;321;7504478;-31
2023/10/02 05:41:48;;;;;;;4.10;2.50;;;;;;;-128.00;-1.00;-1.00;19074;316;7505344;-31
2023/10/02 05:44:20;;;;;;;6.00;3.00;;;;;;;-128.00;-1.00;-1.00;19062;317;7505013;-35
2023/10/02 05:49:24;;;;;;;2.20;1.50;;;;;;;-128.00;-1.00;-1.00;19060;316;7504710;-35
2023/10/02 05:51:55;;;;;;;3.90;2.50;;;;;;;-128.00;-1.00;-1.00;19055;317;7504799;-35
2023/10/02 05:54:26;;;;;;;4.30;1.70;;;;;;;-128.00;-1.00;-1.00;19068;316;7506764;-35
2023/10/02 05:57:08;;;;;;;8.00;2.50;;;;;;;-128.00;-1.00;-1.00;19078;317;7506370;-35
2023/10/02 05:59:45;;;;;;;2.90;1.90;;;;;;;-128.00;-1.00;-1.00;19067;322;7504886;-32
2023/10/02 06:02:19;;;;;;;9.80;2.50;;;;;;;-128.00;-1.00;-1.00;19067;316;7506345;-32
2023/10/02 06:04:48;;;;;;;5.10;2.60;;;;;;;-128.00;-1.00;-1.00;19073;317;7504785;-35
2023/10/02 06:07:19;;;;;;;7.80;3.00;;;;;;;-128.00;-1.00;-1.00;19079;316;7506211;-35
2023/10/02 06:09:46;;;;;;;6.70;2.70;;;;;;;-128.00;-1.00;-1.00;19081;321;7504496;-31
2023/10/02 06:12:12;;;;;;;9.00;3.60;;;;;;;-128.00;-1.00;-1.00;19025;316;7505754;-31
2023/10/02 06:14:45;;;;;;;5.80;3.00;;;;;;;-128.00;-1.00;-1.00;19087;322;7504524;-31
2023/10/02 06:17:11;;;;;;;83.30;4.60;;;;;;;-128.00;-1.00;-1.00;19041;318;7504920;-31
2023/10/02 06:19:42;;;;;;;5.80;1.70;;;;;;;-128.00;-1.00;-1.00;19049;320;7504800;-35
2023/10/02 06:22:15;;;;;;;2.90;1.80;;;;;;;-128.00;-1.00;-1.00;19059;317;7505330;-31
2023/10/02 06:24:42;;;;;;;12.40;2.40;;;;;;;-128.00;-1.00;-1.00;19045;316;7506522;-31
2023/10/02 06:27:14;;;;;;;24.60;3.80;;;;;;;-128.00;-1.00;-1.00;19053;316;7504596;-35
2023/10/02 06:29:43;;;;;;;4.20;2.30;;;;;;;-128.00;-1.00;-1.00;19061;321;7504710;-35
2023/10/02 06:32:14;;;;;;;11.00;2.00;;;;;;;-128.00;-1.00;-1.00;19050;316;7506627;-33
2023/10/02 06:34:43;;;;;;;2.70;2.00;;;;;;;-128.00;-1.00;-1.00;19082;316;7506477;-30
2023/10/02 06:37:16;;;;;;;4.00;2.00;;;;;;;-128.00;-1.00;-1.00;19068;317;7504592;-34
2023/10/02 06:39:45;;;;;;;2.30;1.80;;;;;;;-128.00;-1.00;-1.00;19060;322;7504796;-34
2023/10/02 06:42:15;;;;;;;11.80;4.20;;;;;;;-128.00;-1.00;-1.00;19083;321;7504928;-31
2023/10/02 06:44:52;;;;;;;4.00;2.80;;;;;;;-128.00;-1.00;-1.00;19044;321;7506469;-35
2023/10/02 06:47:21;;;;;;;7.20;2.20;;;;;;;-128.00;-1.00;-1.00;19039;317;7506815;-35
2023/10/02 06:49:47;;;;;;;6.30;2.50;;;;;;;-128.00;-1.00;-1.00;19073;322;7504715;-32
2023/10/02 06:52:15;;;;;;;4.10;2.30;;;;;;;-128.00;-1.00;-1.00;19050;316;7507736;-35
2023/10/02 06:54:43;;;;;;;7.30;2.40;;;;;;;-128.00;-1.00;-1.00;19049;322;7505069;-31
2023/10/02 06:57:11;;;;;;;7.80;1.80;;;;;;;-128.00;-1.00;-1.00;19054;317;7505011;-35
2023/10/02 06:59:39;;;;;;;5.00;1.70;;;;;;;-128.00;-1.00;-1.00;19057;322;7504971;-35
2023/10/02 07:02:06;;;;;;;5.30;2.60;;;;;;;-128.00;-1.00;-1.00;19044;316;7506659;-35
2023/10/02 07:04:36;;;;;;;3.60;2.40;;;;;;;-128.00;-1.00;-1.00;19054;321;7505245;-32
2023/10/02 07:07:07;;;;;;;4.90;2.40;;;;;;;-128.00;-1.00;-1.00;19078;316;7504959;-31
2023/10/02 07:09:34;;;;;;;7.20;2.80;;;;;;;-128.00;-1.00;-1.00;19072;317;7504608;-31
2023/10/02 07:12:08;;;;;;;2.90;1.90;;;;;;;-128.00;-1.00;-1.00;19055;320;7506108;-31
2023/10/02 07:14:36;;;;;;;2.70;1.50;;;;;;;-128.00;-1.00;-1.00;19054;322;7507222;-35
2023/10/02 07:17:12;;;;;;;3.70;1.80;;;;;;;-128.00;-1.00;-1.00;19004;319;7506259;-31
2023/10/02 07:19:39;;;;;;;3.20;2.80;;;;;;;-128.00;-1.00;-1.00;19070;322;7504416;-35
2023/10/02 07:22:16;;;;;;;2.80;1.80;;;;;;;-128.00;-1.00;-1.00;19071;321;7505409;-32
2023/10/02 07:24:46;;;;;;;4.60;2.70;;;;;;;-128.00;-1.00;-1.00;19040;318;7504652;-35
2023/10/02 07:27:23;;;;;;;5.10;3.00;;;;;;;-128.00;-1.00;-1.00;19034;318;7506140;-31
2023/10/02 07:29:52;;;;;;;3.20;2.20;;;;;;;-128.00;-1.00;-1.00;19076;316;7504878;-31
2023/10/02 07:32:19;;;;;;;6.90;3.10;;;;;;;-128.00;-1.00;-1.00;19049;317;7504882;-30
2023/10/02 07:34:48;;;;;;;3.60;2.50;;;;;;;-128.00;-1.00;-1.00;19054;316;7504593;-31
2023/10/02 07:37:16;;;;;;;3.90;2.10;;;;;;;-128.00;-1.00;-1.00;19062;317;7506515;-31
2023/10/02 07:39:43;;;;;;;2.50;1.70;;;;;;;-128.00;-1.00;-1.00;19032;318;7506246;-31
2023/10/02 07:42:12;;;;;;;11.10;3.10;;;;;;;-128.00;-1.00;-1.00;19057;322;7505892;-35
2023/10/02 07:44:38;;;;;;;4.90;2.30;;;;;;;-128.00;-1.00;-1.00;19085;316;7504415;-31
2023/10/02 07:47:10;;;;;;;6.00;2.80;;;;;;;-128.00;-1.00;-1.00;19035;316;7504942;-35
2023/10/02 07:49:44;;;;;;;4.80;2.60;;;;;;;-128.00;-1.00;-1.00;19022;318;7505518;-35
2023/10/02 07:52:11;;;;;;;4.80;2.40;;;;;;;-128.00;-1.00;-1.00;19057;316;7506608;-31
2023/10/02 07:57:14;;;;;;;4.40;2.80;;;;;;;-128.00;-1.00;-1.00;19077;317;7506067;-35
2023/10/02 07:59:43;;;;;;;3.50;1.90;;;;;;;-128.00;-1.00;-1.00;19452;318;7505504;-32
2023/10/02 08:04:49;;;;;;;4.20;2.30;;;;;;;-128.00;-1.00;-1.00;19026;318;7504628;-32
2023/10/02 08:07:14;;;;;;;4.60;2.40;;;;;;;-128.00;-1.00;-1.00;19064;322;7505234;-31
2023/10/02 08:09:47;;;;;;;4.50;2.60;;;;;;;-128.00;-1.00;-1.00;19080;322;7504976;-31
2023/10/02 08:14:54;;;;;;;1.80;1.50;;;;;;;-128.00;-1.00;-1.00;19063;321;7505774;-35
2023/10/02 08:19:56;;;;;;;7.40;1.70;;;;;;;-128.00;-1.00;-1.00;18992;322;7504808;-31
2023/10/02 08:22:35;;;;;;;6.90;2.40;;;;;;;-128.00;-1.00;-1.00;19073;317;7505306;-35
2023/10/02 08:25:02;;;;;;;3.30;2.00;;;;;;;-128.00;-1.00;-1.00;19049;322;7506060;-31
2023/10/02 08:27:30;;;;;;;8.00;2.00;;;;;;;-128.00;-1.00;-1.00;19059;316;7504600;-35
2023/10/02 08:29:56;;;;;;;10.60;2.60;;;;;;;-128.00;-1.00;-1.00;19078;316;7505153;-30
2023/10/02 08:35:13;;;;;;;5.10;2.30;;;;;;;-128.00;-1.00;-1.00;19066;317;7506518;-31
2023/10/02 08:37:40;;;;;;;12.20;2.40;;;;;;;-128.00;-1.00;-1.00;19062;316;7504678;-35
2023/10/02 08:40:08;;;;;;;6.30;2.20;;;;;;;-128.00;-1.00;-1.00;19058;322;7505905;-31
2023/10/02 08:42:34;;;;;;;4.20;1.60;;;;;;;-128.00;-1.00;-1.00;19056;322;7504767;-31
2023/10/02 08:45:00;;;;;;;3.50;2.60;;;;;;;-128.00;-1.00;-1.00;18989;319;7505005;-35
2023/10/02 08:47:26;;;;;;;4.30;1.50;;;;;;;-128.00;-1.00;-1.00;19087;316;7504653;-30
2023/10/02 08:52:38;;;;;;;4.20;1.80;;;;;;;-128.00;-1.00;-1.00;19058;317;7506822;-31
2023/10/02 08:55:33;;;;;;;9.40;2.60;;;;;;;-128.00;-1.00;-1.00;19051;317;7505426;-31
2023/10/02 08:58:15;;;;;;;7.20;2.70;;;;;;;-128.00;-1.00;-1.00;19066;316;7504991;-33
2023/10/02 09:03:42;;;;;;;4.90;2.50;;;;;;;-128.00;-1.00;-1.00;19056;317;7504654;-35
2023/10/02 09:11:34;;;;;;;3.10;2.10;;;;;;;-128.00;-1.00;-1.00;19061;317;7506502;-32
2023/10/02 09:14:12;;;;;;;4.20;1.90;;;;;;;-128.00;-1.00;-1.00;19073;316;7505597;-32
2023/10/02 09:16:38;;;;;;;4.20;2.30;;;;;;;-128.00;-1.00;-1.00;19055;317;7506345;-35
2023/10/02 09:19:28;;;;;;;5.80;3.30;;;;;;;-128.00;-1.00;-1.00;18986;322;7504962;-31
2023/10/02 09:21:53;;;;;;;6.30;1.30;;;;;;;-128.00;-1.00;-1.00;18678;317;7504627;-34
2023/10/02 09:24:20;;;;;;;7.10;2.30;;;;;;;-128.00;-1.00;-1.00;19045;317;7505823;-32
2023/10/02 09:26:46;;;;;;;4.60;2.10;;;;;;;-128.00;-1.00;-1.00;19041;322;7507426;-32
2023/10/02 09:29:12;;;;;;;3.40;2.70;;;;;;;-128.00;-1.00;-1.00;19053;322;7504861;-33
2023/10/02 09:31:38;;;;;;;9.20;2.40;;;;;;;-128.00;-1.00;-1.00;19048;317;7504995;-33
2023/10/02 09:34:11;;;;;;;24.70;2.30;;;;;;;-128.00;-1.00;-1.00;19044;322;7504763;-33
2023/10/02 09:36:47;;;;;;;3.10;1.70;;;;;;;-128.00;-1.00;-1.00;19040;316;7506026;-32
2023/10/02 09:41:55;;;;;;;10.10;2.30;;;;;;;-128.00;-1.00;-1.00;19047;317;7504648;-32
2023/10/02 09:44:27;;;;;;;3.30;2.30;;;;;;;-128.00;-1.00;-1.00;19057;322;7505053;-31
2023/10/02 09:46:53;;;;;;;7.10;2.20;;;;;;;-128.00;-1.00;-1.00;19073;317;7506342;-35
2023/10/02 09:49:25;;;;;;;3.90;1.60;;;;;;;-128.00;-1.00;-1.00;19068;317;7504430;-32
2023/10/02 09:52:15;;;;;;;3.60;1.90;;;;;;;-128.00;-1.00;-1.00;19089;322;7506671;-31
2023/10/02 09:55:05;;;;;;;5.50;2.70;;;;;;;-128.00;-1.00;-1.00;19051;322;7504464;-35
2023/10/02 09:57:36;;;;;;;7.60;2.40;;;;;;;-128.00;-1.00;-1.00;19057;322;7505187;-35
2023/10/02 10:00:33;;;;;;;4.50;2.10;;;;;;;-128.00;-1.00;-1.00;19006;318;7505049;-35
2023/10/02 10:03:16;;;;;;;5.00;2.30;;;;;;;-128.00;-1.00;-1.00;19046;316;7505155;-32
2023/10/02 10:06:06;;;;;;;3.70;1.80;;;;;;;-128.00;-1.00;-1.00;19054;321;7506064;-36
2023/10/02 10:11:34;;;;;;;7.70;2.90;;;;;;;-128.00;-1.00;-1.00;19057;316;7506214;-35
2023/10/02 10:13:59;;;;;;;4.30;2.00;;;;;;;-128.00;-1.00;-1.00;19057;317;7506505;-32
2023/10/02 10:16:38;;;;;;;3.20;1.90;;;;;;;-128.00;-1.00;-1.00;18987;324;7506279;-36
2023/10/02 10:24:23;;;;;;;4.80;3.20;;;;;;;-128.00;-1.00;-1.00;19070;322;7506196;-31
2023/10/02 10:26:49;;;;;;;4.20;2.50;;;;;;;-128.00;-1.00;-1.00;19045;316;7504974;-36
2023/10/02 10:29:41;;;;;;;6.00;3.50;;;;;;;-128.00;-1.00;-1.00;19055;316;7504927;-35
2023/10/02 10:32:19;;;;;;;22.70;2.10;;;;;;;-128.00;-1.00;-1.00;19078;316;7504693;-35
2023/10/02 10:35:11;;;;;;;5.90;1.90;;;;;;;-128.00;-1.00;-1.00;19062;320;7504515;-32
2023/10/02 10:37:47;;;;;;;6.70;3.30;;;;;;;-128.00;-1.00;-1.00;19044;322;7506457;-32
2023/10/02 10:43:14;;;;;;;4.70;2.00;;;;;;;-128.00;-1.00;-1.00;19075;317;7505253;-36
2023/10/02 10:45:41;;;;;;;8.00;2.90;;;;;;;-128.00;-1.00;-1.00;19486;321;7504810;-32
2023/10/02 10:51:06;;;;;;;11.40;1.80;;;;;;;-128.00;-1.00;-1.00;19066;316;7505059;-32
2023/10/02 10:53:33;;;;;;;4.00;2.40;;;;;;;-128.00;-1.00;-1.00;19045;317;7506502;-33
2023/10/02 10:56:03;;;;;;;5.80;2.30;;;;;;;-128.00;-1.00;-1.00;19018;319;7505293;-35
2023/10/02 10:58:35;;;;;;;11.10;1.30;;;;;;;-128.00;-1.00;-1.00;19059;320;7504481;-35
2023/10/02 11:01:03;;;;;;;4.30;2.10;;;;;;;-128.00;-1.00;-1.00;19069;316;7506421;-31
2023/10/02 11:03:30;;;;;;;5.50;2.30;;;;;;;-128.00;-1.00;-1.00;19064;321;7504946;-31
2023/10/02 11:06:02;;;;;;;4.00;2.30;;;;;;;-128.00;-1.00;-1.00;19005;322;7506289;-32
2023/10/02 11:08:28;;;;;;;3.80;1.40;;;;;;;-128.00;-1.00;-1.00;19072;316;7505387;-35
2023/10/02 11:11:06;;;;;;;11.40;1.80;;;;;;;-128.00;-1.00;-1.00;19010;318;7505439;-31
2023/10/02 11:13:57;;;;;;;2.30;1.50;;;;;;;-128.00;-1.00;-1.00;19057;317;7504706;-35
2023/10/02 11:16:31;;;;;;;4.00;2.30;;;;;;;-128.00;-1.00;-1.00;19056;320;7505045;-36
2023/10/02 11:22:22;;;;;;;2.60;2.10;;;;;;;-128.00;-1.00;-1.00;19081;322;7505875;-36
2023/10/02 11:25:18;;;;;;;3.50;1.90;;;;;;;-128.00;-1.00;-1.00;19480;322;7506198;-31
2023/10/02 11:27:56;;;;;;;19.40;3.00;;;;;;;-128.00;-1.00;-1.00;69605;316;7504172;-36
2023/10/02 11:33:07;;;;;;;6.60;1.70;;;;;;;-128.00;-1.00;-1.00;19184;316;7505636;-32
2023/10/02 11:35:38;;;;;;;4.20;2.30;;;;;;;-128.00;-1.00;-1.00;19080;317;7505309;-31
2023/10/02 11:38:07;;;;;;;6.30;1.60;;;;;;;-128.00;-1.00;-1.00;19017;316;7504990;-31
2023/10/02 11:40:34;;;;;;;4.10;2.00;;;;;;;-128.00;-1.00;-1.00;19034;318;7505936;-31
2023/10/02 11:43:00;;;;;;;6.10;2.90;;;;;;;-128.00;-1.00;-1.00;25757;318;7504765;-32
2023/10/02 11:45:29;;;;;;;7.00;2.10;;;;;;;-128.00;-1.00;-1.00;54697;319;7504207;-32
2023/10/02 11:47:55;;;;;;;11.20;2.80;;;;;;;-128.00;-1.00;-1.00;19028;322;7505246;-35
2023/10/02 11:50:23;;;;;;;9.50;4.20;;;;;;;-128.00;-1.00;-1.00;19045;322;7504938;-32
2023/10/02 11:52:49;;;;;;;9.60;2.70;;;;;;;-128.00;-1.00;-1.00;31404;316;7504629;-30
2023/10/02 11:55:17;;;;;;;6.30;2.90;;;;;;;-128.00;-1.00;-1.00;28193;319;7504325;-36
2023/10/02 11:57:51;;;;;;;3.20;1.90;;;;;;;-128.00;-1.00;-1.00;19085;316;7504770;-32
2023/10/02 12:00:20;;;;;;;5.40;2.40;;;;;;;-128.00;-1.00;-1.00;20210;322;7504598;-31
2023/10/02 12:02:47;;;;;;;6.70;2.30;;;;;;;-128.00;-1.00;-1.00;21295;316;7506464;-35
2023/10/02 12:05:14;;;;;;;6.90;2.60;;;;;;;-128.00;-1.00;-1.00;19015;322;7505086;-32
2023/10/02 12:07:41;;;;;;;7.20;2.80;;;;;;;-128.00;-1.00;-1.00;87514;318;7504741;-31
2023/10/02 12:10:09;;;;;;;6.20;2.30;;;;;;;-128.00;-1.00;-1.00;97353;317;5854306;-30
2023/10/02 12:12:37;;;;;;;1.70;1.10;;;;;;;-128.00;-1.00;-1.00;90140;317;3824907;-33
2023/10/02 12:15:04;;;;;;;7.60;3.30;;;;;;;-128.00;-1.00;-1.00;96070;318;4503470;-33
2023/10/02 12:17:31;;;;;;;4.90;2.40;;;;;;;-128.00;-1.00;-1.00;70708;317;7503978;-31
2023/10/02 12:19:56;;;;;;;9.20;3.30;;;;;;;-128.00;-1.00;-1.00;28380;320;7504622;-31
2023/10/02 12:22:26;;;;;;;4.70;2.70;;;;;;;-128.00;-1.00;-1.00;100840;317;1002830;-32
2023/10/02 12:24:52;;;;;;;4.30;1.60;;;;;;;-128.00;-1.00;-1.00;87467;316;3219688;-38
2023/10/02 12:27:20;;;;;;;5.00;2.70;;;;;;;-128.00;-1.00;-1.00;53985;318;7504569;-31
2023/10/02 12:29:45;;;;;;;4.30;1.80;;;;;;;-128.00;-1.00;-1.00;19071;317;7504998;-35
2023/10/02 12:32:12;;;;;;;5.20;2.60;;;;;;;-128.00;-1.00;-1.00;19476;316;7504540;-36
2023/10/02 13:17:32;;;;;;;2.10;0.70;;;;;;;26.82;49.99;100014.39;104414;316;589378;-31
2023/10/02 13:19:57;;;;;;;3.10;1.50;;;;;;;26.75;49.09;100008.63;104209;315;619226;-35
2023/10/02 13:22:23;;;;;;;3.90;1.20;;;;;;;26.83;49.87;100006.90;104609;316;23546;-32
2023/10/02 13:24:49;;;;;;;5.80;2.00;;;;;;;26.70;49.32;100004.87;104521;318;24212;-37
2023/10/02 13:27:17;;;;;;;5.20;2.20;;;;;;;26.60;49.72;99999.17;104609;316;22638;-37
2023/10/02 13:29:44;;;;;;;4.70;1.90;;;;;;;26.68;49.27;99994.08;104567;316;23052;-37
2023/10/02 13:32:10;;;;;;;2.20;1.50;;;;;;;26.63;49.19;99989.57;104573;316;24097;-37
2023/10/02 13:34:36;;;;;;;14.10;2.20;;;;;;;26.43;49.73;99988.38;104568;317;22884;-31
2023/10/02 13:37:02;;;;;;;5.10;2.10;;;;;;;26.05;49.73;99983.06;104605;316;22877;-31
2023/10/02 13:39:29;;;;;;;4.50;1.90;;;;;;;25.67;50.32;99981.27;104609;316;22888;-37
2023/10/02 13:41:54;;;;;;;3.40;1.30;;;;;;;25.52;50.88;99980.02;104628;316;23011;-36
2023/10/02 13:44:21;;;;;;;6.10;2.10;;;;;;;25.40;51.34;99979.45;104490;316;22569;-32
2023/10/02 13:46:46;;;;;;;5.10;1.80;;;;;;;25.44;51.03;99977.63;104582;316;22885;-36
2023/10/02 13:49:14;;;;;;;3.80;1.10;;;;;;;25.45;49.91;99973.45;104548;318;23105;-32
2023/10/02 13:51:41;;;;;;;4.40;1.70;;;;;;;25.17;50.40;99977.03;104581;316;24025;-32
2023/10/02 13:54:07;;;;;;;1.70;1.00;;;;;;;25.11;50.86;99972.70;104554;316;24087;-35
2023/10/02 13:56:33;;;;;;;4.00;1.30;;;;;;;25.24;50.70;99976.20;104657;316;24096;-31
2023/10/02 13:58:59;;;;;;;2.20;1.00;;;;;;;25.17;50.70;99973.09;104526;316;24025;-37
2023/10/02 14:01:25;;;;;;;2.90;1.40;;;;;;;25.08;50.14;99969.96;104550;318;24020;-35
2023/10/02 14:03:51;;;;;;;2.60;1.40;;;;;;;24.84;51.54;99971.15;104557;317;22877;-31
2023/10/02 14:06:20;;;;;;;7.60;1.50;;;;;;;24.89;51.44;99969.98;104615;316;25153;-31
2023/10/02 14:08:46;;;;;;;3.10;1.10;;;;;;;24.75;51.43;99967.87;104649;316;25382;-33
2023/10/02 14:11:16;;;;;;;2.80;0.90;;;;;;;24.56;51.98;99972.44;104681;316;23006;-31
2023/10/02 14:13:42;;;;;;;3.60;1.40;;;;;;;24.64;51.70;99975.07;104430;316;25240;-35
2023/10/02 14:16:09;;;;;;;3.20;1.20;;;;;;;24.70;51.94;99972.38;104613;316;23977;-34
2023/10/02 14:18:35;;;;;;;1.70;1.00;;;;;;;24.75;51.90;99967.77;104424;317;22562;-35
2023/10/02 14:21:06;;;;;;;2.30;1.30;;;;;;;24.74;51.80;99963.64;104596;316;22986;-37
2023/10/02 14:23:37;;;;;;;5.30;1.10;;;;;;;24.71;52.23;99965.56;104318;318;22678;-35
2023/10/02 14:26:09;;;;;;;2.10;1.10;;;;;;;24.82;52.39;99960.94;104354;317;22597;-30
2023/10/02 14:28:35;;;;;;;2.70;1.40;;;;;;;24.93;51.59;99959.32;104669;317;25444;-31
2023/10/02 14:31:01;;;;;;;2.60;1.20;;;;;;;24.84;51.65;99958.23;104432;317;22563;-33
2023/10/02 14:33:27;;;;;;;1.80;1.00;;;;;;;24.85;52.22;99955.72;104407;317;22587;-34
2023/10/02 14:35:54;;;;;;;2.40;1.30;;;;;;;24.82;51.70;99954.61;104582;317;24138;-31
2023/10/02 14:38:23;;;;;;;1.90;1.00;;;;;;;24.68;51.92;99956.62;104369;317;25121;-37
2023/10/02 14:40:52;;;;;;;3.00;1.40;;;;;;;24.63;52.74;99948.61;104660;317;25426;-37